createdAt,value
2023-04-13T00:01:12.287Z,6.56
2023-04-13T00:03:39.856Z,6.56
2023-04-13T00:06:10.950Z,6.58
2023-04-13T00:08:38.428Z,6.59
2023-04-13T00:11:07.498Z,6.51
2023-04-13T00:13:41.461Z,6.56
2023-04-13T00:16:10.093Z,6.57
2023-04-13T00:18:37.244Z,6.55
2023-04-13T00:21:04.686Z,6.66
2023-04-13T00:23:32.109Z,6.65
2023-04-13T00:26:01.405Z,6.65
2023-04-13T00:28:29.735Z,6.62
2023-04-13T00:30:56.912Z,6.64
2023-04-13T00:33:24.042Z,6.59
2023-04-13T00:35:51.743Z,6.61
2023-04-13T00:38:18.799Z,6.49
2023-04-13T00:40:45.929Z,6.54
2023-04-13T00:43:13.026Z,6.52
2023-04-13T00:45:41.380Z,6.56
2023-04-13T00:48:11.915Z,6.51
2023-04-13T00:50:40.055Z,6.48
2023-04-13T00:53:10.412Z,6.48
2023-04-13T00:55:42.137Z,6.51
2023-04-13T00:58:10.958Z,6.51
2023-04-13T01:00:42.960Z,6.53
2023-04-13T01:03:10.689Z,6.48
2023-04-13T01:05:54.129Z,6.42
2023-04-13T01:08:37.181Z,6.46
2023-04-13T01:11:18.696Z,6.42
2023-04-13T01:13:45.807Z,6.49
2023-04-13T01:16:20.668Z,6.51
2023-04-13T01:18:53.168Z,6.53
2023-04-13T01:21:26.012Z,6.59
2023-04-13T01:24:05.725Z,6.56
2023-04-13T01:26:58.355Z,6.52
2023-04-13T01:29:27.470Z,6.57
2023-04-13T01:31:55.764Z,6.57
2023-04-13T01:34:25.077Z,6.59
2023-04-13T01:36:53.461Z,6.63
2023-04-13T01:39:21.794Z,6.60
2023-04-13T01:41:49.186Z,6.65
2023-04-13T01:44:17.097Z,6.71
2023-04-13T01:46:47.759Z,6.67
2023-04-13T01:49:19.447Z,6.64
2023-04-13T01:51:50.499Z,6.64
2023-04-13T01:54:25.739Z,6.56
2023-04-13T01:56:57.356Z,6.49
2023-04-13T01:59:24.583Z,6.56
2023-04-13T02:01:52.604Z,6.36
2023-04-13T02:04:20.291Z,6.41
2023-04-13T02:06:48.285Z,6.38
2023-04-13T02:09:15.618Z,6.29
2023-04-13T02:11:44.109Z,6.38
2023-04-13T02:14:11.173Z,6.42
2023-04-13T02:16:38.978Z,6.46
2023-04-13T02:19:06.099Z,6.51
2023-04-13T02:21:34.709Z,6.53
2023-04-13T02:24:01.724Z,6.56
2023-04-13T02:26:28.809Z,6.44
2023-04-13T02:28:56.511Z,6.56
2023-04-13T02:31:23.761Z,6.57
2023-04-13T02:33:52.147Z,6.57
2023-04-13T02:36:20.324Z,6.55
2023-04-13T02:38:47.738Z,6.51
2023-04-13T02:41:15.556Z,6.59
2023-04-13T02:43:43.536Z,6.47
2023-04-13T02:46:10.587Z,6.48
2023-04-13T02:48:38.073Z,6.54
2023-04-13T02:51:05.285Z,6.58
2023-04-13T02:53:32.391Z,6.57
2023-04-13T02:55:59.713Z,6.54
2023-04-13T02:58:26.765Z,6.48
2023-04-13T03:00:53.992Z,6.49
2023-04-13T03:03:21.742Z,6.38
2023-04-13T03:05:50.525Z,6.42
2023-04-13T03:08:17.915Z,6.35
2023-04-13T03:10:44.956Z,6.41
2023-04-13T03:13:12.117Z,6.32
2023-04-13T03:15:40.678Z,6.27
2023-04-13T03:18:07.786Z,6.18
2023-04-13T03:20:34.922Z,6.23
2023-04-13T03:23:02.591Z,6.16
2023-04-13T03:25:30.795Z,6.16
2023-04-13T03:27:59.015Z,6.18
2023-04-13T03:30:26.410Z,6.18
2023-04-13T03:32:53.576Z,6.15
2023-04-13T03:35:21.523Z,6.12
2023-04-13T03:37:48.604Z,6.18
2023-04-13T03:40:15.724Z,6.17
2023-04-13T03:42:42.877Z,6.13
2023-04-13T03:45:10.595Z,6.13
2023-04-13T03:47:39.171Z,6.04
2023-04-13T03:50:06.789Z,6.11
2023-04-13T03:52:33.820Z,6.14
2023-04-13T03:55:01.764Z,6.14
2023-04-13T03:57:29.873Z,6.13
2023-04-13T03:59:56.975Z,6.19
2023-04-13T04:02:24.328Z,6.23
2023-04-13T04:04:52.174Z,6.19
2023-04-13T04:07:23.008Z,6.26
2023-04-13T04:09:51.060Z,6.24
2023-04-13T04:12:18.206Z,6.23
2023-04-13T04:14:45.245Z,6.26
2023-04-13T04:17:12.332Z,6.18
2023-04-13T04:19:39.600Z,6.20
2023-04-13T04:22:07.267Z,6.26
2023-04-13T04:24:34.622Z,6.20
2023-04-13T04:27:02.648Z,6.29
2023-04-13T04:29:35.963Z,6.33
2023-04-13T04:32:05.575Z,6.26
2023-04-13T04:34:32.996Z,6.37
2023-04-13T04:37:03.168Z,6.39
2023-04-13T04:39:34.996Z,6.46
2023-04-13T04:42:04.681Z,6.44
2023-04-13T04:44:31.881Z,6.39
2023-04-13T04:46:59.682Z,6.37
2023-04-13T04:49:28.168Z,6.41
2023-04-13T04:51:55.959Z,6.39
2023-04-13T04:54:23.439Z,6.31
2023-04-13T04:56:52.249Z,6.37
2023-04-13T04:59:22.451Z,6.31
2023-04-13T05:01:50.348Z,6.27
2023-04-13T05:04:17.713Z,6.31
2023-04-13T05:06:44.976Z,6.35
2023-04-13T05:09:12.079Z,6.27
2023-04-13T05:11:39.213Z,6.30
2023-04-13T05:14:06.738Z,6.24
2023-04-13T05:16:34.874Z,6.24
2023-04-13T05:19:02.455Z,6.24
2023-04-13T05:21:29.632Z,6.26
2023-04-13T05:23:56.910Z,6.28
2023-04-13T05:26:25.525Z,6.37
2023-04-13T05:28:52.827Z,6.41
2023-04-13T05:31:20.568Z,6.43
2023-04-13T05:33:48.085Z,6.43
2023-04-13T05:36:15.184Z,6.49
2023-04-13T05:38:43.041Z,6.54
2023-04-13T05:41:10.411Z,6.57
2023-04-13T05:43:37.616Z,6.61
2023-04-13T05:46:05.042Z,6.58
2023-04-13T05:48:34.309Z,6.51
2023-04-13T05:51:02.100Z,6.63
2023-04-13T05:53:29.300Z,6.57
2023-04-13T05:55:56.637Z,6.54
2023-04-13T05:58:26.250Z,6.59
2023-04-13T06:00:53.990Z,6.57
2023-04-13T06:03:21.922Z,6.59
2023-04-13T06:05:49.640Z,6.59
2023-04-13T06:08:17.492Z,6.72
2023-04-13T06:10:44.743Z,6.78
2023-04-13T06:13:12.509Z,6.75
2023-04-13T06:15:40.221Z,6.70
2023-04-13T06:18:07.389Z,6.81
2023-04-13T06:20:34.985Z,6.82
2023-04-13T06:23:02.605Z,6.93
2023-04-13T06:25:29.643Z,7.01
2023-04-13T06:27:56.948Z,7.08
2023-04-13T06:30:24.083Z,7.14
2023-04-13T06:32:51.952Z,7.23
2023-04-13T06:35:19.194Z,7.28
2023-04-13T06:37:46.456Z,7.39
2023-04-13T06:40:17.308Z,7.34
2023-04-13T06:42:44.368Z,7.32
2023-04-13T06:45:12.307Z,7.35
2023-04-13T06:47:43.108Z,7.38
2023-04-13T06:50:18.567Z,7.48
2023-04-13T06:52:47.639Z,7.45
2023-04-13T06:55:16.336Z,7.41
2023-04-13T06:57:44.114Z,7.33
2023-04-13T07:00:28.350Z,7.49
2023-04-13T07:02:58.578Z,7.59
2023-04-13T07:05:25.929Z,7.59
2023-04-13T07:07:52.961Z,7.68
2023-04-13T07:10:20.036Z,7.75
2023-04-13T07:12:47.683Z,7.72
2023-04-13T07:15:15.438Z,7.74
2023-04-13T07:17:42.802Z,7.62
2023-04-13T07:20:10.216Z,7.64
2023-04-13T07:22:38.134Z,7.53
2023-04-13T07:25:05.641Z,7.44
2023-04-13T07:27:33.567Z,7.55
2023-04-13T07:30:01.665Z,7.69
2023-04-13T07:32:31.312Z,7.69
2023-04-13T07:35:02.180Z,7.68
2023-04-13T07:37:29.715Z,7.64
2023-04-13T07:39:56.916Z,7.39
2023-04-13T07:42:25.111Z,7.45
2023-04-13T07:44:56.324Z,7.45
2023-04-13T07:47:23.453Z,7.43
2023-04-13T07:49:51.556Z,7.42
2023-04-13T07:52:20.398Z,7.50
2023-04-13T07:54:47.666Z,7.63
2023-04-13T07:57:14.972Z,7.86
2023-04-13T07:59:42.015Z,7.87
2023-04-13T08:02:09.187Z,7.91
2023-04-13T08:04:36.672Z,7.99
2023-04-13T08:07:04.577Z,8.05
2023-04-13T08:09:42.360Z,8.16
2023-04-13T08:12:09.707Z,8.37
2023-04-13T08:14:37.211Z,8.50
2023-04-13T08:17:06.113Z,8.50
2023-04-13T08:19:33.880Z,8.52
2023-04-13T08:22:01.631Z,8.52
2023-04-13T08:24:29.291Z,8.60
2023-04-13T08:26:58.308Z,8.53
2023-04-13T08:29:25.693Z,8.34
2023-04-13T08:31:53.103Z,8.36
2023-04-13T08:34:21.612Z,8.32
2023-04-13T08:36:48.795Z,8.27
2023-04-13T08:39:16.888Z,8.24
2023-04-13T08:41:45.984Z,8.33
2023-04-13T08:44:14.336Z,8.61
2023-04-13T08:46:43.895Z,8.74
2023-04-13T08:49:12.304Z,8.83
2023-04-13T08:51:42.042Z,8.78
2023-04-13T08:54:09.218Z,8.81
2023-04-13T08:56:46.016Z,8.89
2023-04-13T08:59:16.136Z,8.92
2023-04-13T09:01:47.371Z,9.05
2023-04-13T09:04:18.001Z,9.06
2023-04-13T09:06:51.400Z,9.03
2023-04-13T09:09:21.174Z,9.24
2023-04-13T09:11:50.844Z,9.25
2023-04-13T09:14:22.470Z,9.24
2023-04-13T09:16:50.383Z,9.29
2023-04-13T09:19:29.929Z,9.50
2023-04-13T09:21:57.684Z,9.44
2023-04-13T09:24:26.052Z,9.50
2023-04-13T09:26:53.437Z,9.52
2023-04-13T09:29:22.347Z,9.66
2023-04-13T09:31:50.569Z,9.59
2023-04-13T09:34:28.601Z,9.62
2023-04-13T09:36:57.316Z,9.68
2023-04-13T09:39:27.919Z,9.70
2023-04-13T09:41:56.659Z,9.74
2023-04-13T09:44:35.085Z,9.88
2023-04-13T09:47:06.977Z,9.93
2023-04-13T09:49:41.963Z,9.81
2023-04-13T09:52:23.537Z,9.99
2023-04-13T09:55:00.173Z,10.09
2023-04-13T09:57:32.168Z,10.34
2023-04-13T10:00:01.337Z,10.24
2023-04-13T10:02:29.286Z,10.26
2023-04-13T10:04:57.582Z,10.26
2023-04-13T10:07:28.734Z,10.21
2023-04-13T10:09:55.779Z,10.29
2023-04-13T10:12:26.862Z,10.41
2023-04-13T10:15:02.697Z,10.53
2023-04-13T10:17:54.862Z,10.58
2023-04-13T10:20:22.918Z,10.57
2023-04-13T10:22:53.287Z,10.59
2023-04-13T10:25:32.131Z,10.61
2023-04-13T10:28:00.586Z,10.52
2023-04-13T10:30:28.404Z,10.46
2023-04-13T10:33:09.965Z,10.45
2023-04-13T10:35:37.628Z,10.20
2023-04-13T10:38:05.387Z,10.20
2023-04-13T10:40:46.281Z,10.11
2023-04-13T10:43:26.242Z,9.96
2023-04-13T10:46:10.919Z,10.06
2023-04-13T10:48:38.029Z,10.22
2023-04-13T10:51:05.113Z,10.33
2023-04-13T10:53:33.349Z,10.26
2023-04-13T10:56:01.653Z,10.34
2023-04-13T10:58:33.034Z,10.26
2023-04-13T11:01:00.685Z,10.27
2023-04-13T11:03:28.855Z,10.50
2023-04-13T11:05:58.345Z,10.63
2023-04-13T11:08:26.633Z,10.90
2023-04-13T11:10:55.164Z,10.77
2023-04-13T11:13:25.463Z,10.86
2023-04-13T11:16:01.785Z,10.76
2023-04-13T11:18:28.933Z,10.78
2023-04-13T11:20:56.457Z,10.50
2023-04-13T11:23:24.612Z,10.42
2023-04-13T11:25:59.867Z,10.29
2023-04-13T11:28:40.905Z,10.33
2023-04-13T11:31:08.536Z,10.44
2023-04-13T11:33:38.651Z,10.60
2023-04-13T11:36:07.886Z,10.79
2023-04-13T11:38:35.167Z,10.66
2023-04-13T11:41:15.742Z,10.64
2023-04-13T11:43:46.601Z,10.42
2023-04-13T11:46:16.316Z,10.32
2023-04-13T11:48:43.980Z,10.23
2023-04-13T11:51:11.869Z,10.21
2023-04-13T11:53:40.318Z,10.16
2023-04-13T11:56:07.932Z,10.32
2023-04-13T11:58:36.689Z,10.44
2023-04-13T12:01:13.985Z,10.44
2023-04-13T12:04:01.019Z,10.56
2023-04-13T12:06:33.988Z,10.70
2023-04-13T12:09:10.299Z,10.79
2023-04-13T12:11:44.191Z,10.75
2023-04-13T12:19:26.113Z,11.33
2023-04-13T12:21:56.713Z,11.58
2023-04-13T12:24:37.788Z,11.66
2023-04-13T12:29:40.135Z,11.64
2023-04-13T12:32:14.105Z,11.64
2023-04-13T12:34:42.231Z,11.60
2023-04-13T12:37:11.082Z,11.78
2023-04-13T12:39:38.258Z,11.81
2023-04-13T12:42:05.524Z,11.72
2023-04-13T12:44:34.159Z,11.47
2023-04-13T12:47:04.970Z,11.57
2023-04-13T12:49:32.035Z,11.35
2023-04-13T12:51:59.155Z,11.59
2023-04-13T12:54:26.266Z,11.88
2023-04-13T12:56:54.085Z,11.87
2023-04-13T12:59:23.164Z,12.04
2023-04-13T13:01:51.532Z,11.96
2023-04-13T13:04:18.664Z,12.34
2023-04-13T13:06:45.761Z,12.10
2023-04-13T13:09:12.957Z,11.65
2023-04-13T13:11:40.063Z,11.79
2023-04-13T13:14:09.841Z,12.09
2023-04-13T13:16:38.226Z,12.50
2023-04-13T13:19:05.558Z,12.85
2023-04-13T13:21:33.160Z,13.20
2023-04-13T13:24:00.431Z,13.10
2023-04-13T13:26:33.119Z,13.47
2023-04-13T13:29:07.239Z,13.65
2023-04-13T13:31:34.413Z,13.79
2023-04-13T13:34:01.841Z,13.77
2023-04-13T13:36:30.619Z,13.27
2023-04-13T13:38:59.813Z,12.80
2023-04-13T13:41:27.227Z,12.39
2023-04-13T13:43:54.239Z,12.27
2023-04-13T13:46:22.088Z,12.43
2023-04-13T13:48:49.245Z,13.39
2023-04-13T13:51:16.370Z,13.91
2023-04-13T13:53:43.475Z,13.36
2023-04-13T13:56:10.611Z,12.94
2023-04-13T13:58:37.675Z,12.80
2023-04-13T14:01:05.525Z,12.68
2023-04-13T14:03:32.707Z,12.25
2023-04-13T14:06:00.010Z,12.65
2023-04-13T14:08:27.044Z,13.18
2023-04-13T14:10:54.260Z,13.20
2023-04-13T14:13:21.999Z,14.13
2023-04-13T14:15:49.101Z,14.48
2023-04-13T14:18:16.349Z,14.85
2023-04-13T14:20:43.585Z,15.62
2023-04-13T14:23:10.846Z,16.50
2023-04-13T14:25:41.014Z,15.11
2023-04-13T14:28:09.358Z,15.28
2023-04-13T14:30:37.085Z,14.85
2023-04-13T14:33:05.788Z,15.59
2023-04-13T14:35:33.176Z,15.14
2023-04-13T14:38:00.452Z,14.87
2023-04-13T14:40:28.338Z,15.23
2023-04-13T14:42:55.413Z,15.21
2023-04-13T14:45:23.644Z,15.09
2023-04-13T14:47:53.722Z,14.18
2023-04-13T14:50:24.211Z,13.23
2023-04-13T14:52:52.872Z,13.33
2023-04-13T14:55:20.361Z,13.75
2023-04-13T14:57:48.117Z,13.93
2023-04-13T15:00:25.952Z,13.80
2023-04-13T15:02:53.651Z,13.85
2023-04-13T15:05:21.844Z,14.25
2023-04-13T15:07:51.762Z,14.34
2023-04-13T15:10:19.126Z,13.80
2023-04-13T15:12:46.608Z,13.36
2023-04-13T15:15:13.873Z,12.56
2023-04-13T15:17:41.074Z,12.41
2023-04-13T15:20:10.709Z,12.83
2023-04-13T15:22:38.034Z,13.38
2023-04-13T15:25:05.627Z,13.79
2023-04-13T15:27:32.789Z,14.66
2023-04-13T15:30:00.425Z,15.02
2023-04-13T15:32:28.394Z,14.34
2023-04-13T15:34:56.742Z,14.11
2023-04-13T15:37:24.284Z,14.10
2023-04-13T15:39:52.031Z,14.47
2023-04-13T15:42:21.903Z,14.53
2023-04-13T15:44:49.028Z,14.52
2023-04-13T15:47:16.384Z,13.97
2023-04-13T15:49:43.535Z,13.32
2023-04-13T15:52:10.766Z,13.28
2023-04-13T15:54:37.986Z,13.62
2023-04-13T15:57:05.396Z,13.87
2023-04-13T15:59:34.575Z,14.21
2023-04-13T16:02:02.346Z,14.26
2023-04-13T16:04:29.761Z,14.94
2023-04-13T16:07:11.939Z,14.91
2023-04-13T16:09:43.304Z,14.81
2023-04-13T16:12:11.759Z,13.85
2023-04-13T16:14:39.340Z,13.54
2023-04-13T16:17:07.834Z,13.83
2023-04-13T16:19:35.796Z,14.35
2023-04-13T16:22:05.609Z,14.53
2023-04-13T16:24:33.595Z,14.31
2023-04-13T16:27:00.708Z,13.89
2023-04-13T16:29:28.891Z,13.57
2023-04-13T16:31:56.766Z,14.05
2023-04-13T16:34:26.620Z,14.68
2023-04-13T16:36:54.202Z,15.25
2023-04-13T16:39:22.462Z,15.23
2023-04-13T16:41:50.838Z,15.43
2023-04-13T16:44:17.972Z,14.45
2023-04-13T16:46:45.149Z,13.43
2023-04-13T16:49:12.445Z,13.41
2023-04-13T16:51:39.543Z,13.81
2023-04-13T16:54:06.730Z,13.97
2023-04-13T16:56:33.872Z,14.55
2023-04-13T16:59:01.845Z,14.83
2023-04-13T17:01:30.698Z,14.48
2023-04-13T17:03:58.123Z,14.22
2023-04-13T17:06:26.698Z,14.03
2023-04-13T17:08:53.860Z,13.69
2023-04-13T17:11:25.278Z,13.70
2023-04-13T17:13:52.433Z,13.34
2023-04-13T17:16:19.698Z,12.93
2023-04-13T17:18:47.679Z,12.52
2023-04-13T17:21:14.809Z,12.42
2023-04-13T17:23:41.865Z,12.19
2023-04-13T17:26:08.922Z,12.08
2023-04-13T17:28:36.039Z,11.93
2023-04-13T17:31:03.119Z,11.94
2023-04-13T17:33:30.282Z,11.93
2023-04-13T17:35:57.463Z,11.80
2023-04-13T17:38:24.642Z,11.59
2023-04-13T17:40:52.155Z,11.57
2023-04-13T17:43:19.389Z,11.53
2023-04-13T17:45:46.592Z,11.47
2023-04-13T17:48:13.963Z,11.51
2023-04-13T17:50:41.307Z,11.56
2023-04-13T17:53:08.559Z,11.55
2023-04-13T17:55:36.546Z,11.35
2023-04-13T17:58:04.008Z,11.23
2023-04-13T18:00:31.251Z,11.30
2023-04-13T18:02:58.561Z,11.26
2023-04-13T18:05:26.778Z,11.29
2023-04-13T18:07:53.865Z,11.30
2023-04-13T18:10:22.031Z,11.27
2023-04-13T18:12:49.454Z,11.17
2023-04-13T18:15:17.258Z,11.07
2023-04-13T18:17:44.419Z,10.87
2023-04-13T18:20:11.952Z,10.88
2023-04-13T18:22:39.103Z,10.83
2023-04-13T18:25:06.437Z,10.72
2023-04-13T18:27:33.687Z,10.70
2023-04-13T18:30:00.984Z,10.68
2023-04-13T18:32:28.120Z,10.60
2023-04-13T18:34:55.476Z,10.60
2023-04-13T18:37:22.495Z,10.57
2023-04-13T18:39:50.019Z,10.53
2023-04-13T18:42:17.530Z,10.49
2023-04-13T18:44:44.596Z,10.32
2023-04-13T18:47:11.649Z,10.36
2023-04-13T18:49:38.835Z,10.32
2023-04-13T18:52:06.052Z,10.26
2023-04-13T18:54:33.234Z,10.22
2023-04-13T18:57:00.271Z,10.13
2023-04-13T18:59:28.324Z,10.03
2023-04-13T19:01:55.492Z,9.94
2023-04-13T19:04:22.818Z,9.85
2023-04-13T19:06:50.561Z,9.79
2023-04-13T19:09:17.792Z,9.71
2023-04-13T19:11:47.766Z,9.62
2023-04-13T19:14:14.966Z,9.53
2023-04-13T19:16:42.176Z,9.46
2023-04-13T19:19:10.102Z,9.45
2023-04-13T19:21:37.234Z,9.33
2023-04-13T19:24:04.454Z,9.32
2023-04-13T19:26:31.578Z,9.29
2023-04-13T19:29:00.349Z,9.29
2023-04-13T19:31:27.500Z,9.28
2023-04-13T19:33:54.765Z,9.24
2023-04-13T19:36:23.136Z,9.15
2023-04-13T19:38:52.024Z,9.13
2023-04-13T19:41:19.318Z,9.04
2023-04-13T19:43:47.440Z,9.01
2023-04-13T19:46:14.570Z,9.00
2023-04-13T19:48:42.304Z,8.91
2023-04-13T19:51:09.432Z,8.89
2023-04-13T19:53:38.197Z,8.89
2023-04-13T19:56:05.584Z,8.92
2023-04-13T19:58:32.900Z,8.94
2023-04-13T20:01:00.420Z,8.96
2023-04-13T20:03:28.757Z,8.98
2023-04-13T20:05:58.275Z,9.01
2023-04-13T20:08:25.764Z,9.08
2023-04-13T20:10:53.112Z,9.11
2023-04-13T20:13:21.265Z,9.09
2023-04-13T20:15:48.364Z,9.12
2023-04-13T20:18:17.275Z,9.12
2023-04-13T20:20:44.676Z,9.07
2023-04-13T20:23:11.767Z,9.01
2023-04-13T20:25:38.921Z,9.02
2023-04-13T20:28:06.070Z,8.98
2023-04-13T20:30:33.155Z,8.92
2023-04-13T20:33:00.343Z,8.81
2023-04-13T20:35:28.192Z,8.78
2023-04-13T20:37:59.924Z,8.73
2023-04-13T20:40:28.200Z,8.65
2023-04-13T20:42:58.490Z,8.63
2023-04-13T20:45:25.842Z,8.60
2023-04-13T20:47:56.065Z,8.54
2023-04-13T20:50:25.703Z,8.53
2023-04-13T20:52:56.591Z,8.47
2023-04-13T20:55:24.541Z,8.44
2023-04-13T20:57:52.411Z,8.39
2023-04-13T21:00:23.369Z,8.35
2023-04-13T21:02:52.878Z,8.37
2023-04-13T21:05:22.135Z,8.31
2023-04-13T21:07:50.536Z,8.33
2023-04-13T21:10:17.917Z,8.32
2023-04-13T21:12:44.956Z,8.31
2023-04-13T21:15:12.409Z,8.20
2023-04-13T21:17:39.516Z,8.23
2023-04-13T21:20:08.968Z,8.21
2023-04-13T21:22:36.891Z,8.19
2023-04-13T21:25:05.271Z,8.17
2023-04-13T21:27:32.536Z,8.08
2023-04-13T21:30:00.116Z,8.03
2023-04-13T21:32:27.333Z,7.99
2023-04-13T21:34:55.092Z,7.99
2023-04-13T21:37:22.271Z,7.94
2023-04-13T21:39:50.034Z,7.88
2023-04-13T21:42:17.262Z,7.85
2023-04-13T21:44:44.296Z,7.79
2023-04-13T21:47:11.392Z,7.76
2023-04-13T21:49:38.518Z,7.67
2023-04-13T21:52:05.575Z,7.65
2023-04-13T21:54:32.752Z,7.68
2023-04-13T21:56:59.896Z,7.68
2023-04-13T21:59:28.115Z,7.68
2023-04-13T22:01:55.459Z,7.65
2023-04-13T22:04:22.965Z,7.59
2023-04-13T22:06:51.475Z,7.51
2023-04-13T22:09:18.680Z,7.41
2023-04-13T22:11:46.404Z,7.34
2023-04-13T22:14:13.546Z,7.31
2023-04-13T22:16:40.992Z,7.29
2023-04-13T22:19:08.428Z,7.29
2023-04-13T22:21:36.781Z,7.31
2023-04-13T22:24:04.173Z,7.25
2023-04-13T22:26:31.334Z,7.21
2023-04-13T22:28:58.976Z,7.20
2023-04-13T22:31:26.432Z,7.16
2023-04-13T22:33:53.482Z,7.12
2023-04-13T22:36:21.761Z,7.04
2023-04-13T22:38:50.332Z,7.02
2023-04-13T22:41:17.492Z,6.99
2023-04-13T22:43:44.755Z,6.94
2023-04-13T22:46:12.121Z,6.92
2023-04-13T22:48:39.414Z,6.85
2023-04-13T22:51:06.528Z,6.88
2023-04-13T22:53:33.661Z,6.86
2023-04-13T22:56:01.068Z,6.81
2023-04-13T22:58:28.774Z,6.69
2023-04-13T23:00:56.003Z,6.67
2023-04-13T23:03:23.410Z,6.68
2023-04-13T23:05:51.655Z,6.62
2023-04-13T23:08:18.812Z,6.58
2023-04-13T23:10:46.345Z,6.58
2023-04-13T23:13:13.550Z,6.53
2023-04-13T23:15:40.763Z,6.52
2023-04-13T23:18:07.919Z,6.44
2023-04-13T23:20:35.045Z,6.43
2023-04-13T23:23:02.480Z,6.38
2023-04-13T23:25:29.602Z,6.37
2023-04-13T23:27:56.653Z,6.33
2023-04-13T23:30:23.770Z,6.22
2023-04-13T23:32:51.981Z,6.22
2023-04-13T23:35:19.225Z,6.21
2023-04-13T23:37:46.655Z,6.14
2023-04-13T23:40:13.830Z,6.12
2023-04-13T23:42:41.111Z,6.12
2023-04-13T23:45:08.831Z,6.11
2023-04-13T23:47:36.037Z,6.11
2023-04-13T23:50:03.432Z,6.12
2023-04-13T23:52:30.820Z,6.04
2023-04-13T23:54:57.873Z,5.99
2023-04-13T23:57:24.985Z,5.99
2023-04-13T23:59:56.980Z,5.99
